Time;durP1;ratioP1;P1;durP2;ratioP2;P2;SDS_P1;SDS_P2;PMS_P1;PMS_P2;Temp;Humidity;BMP_temperature;BMP_pressure;BME280_temperature;BME280_humidity;BME280_pressure;Samples;Min_cycle;Max_cycle;Signal;HPM_P1;HPM_P2
2022/11/11 00:00:33;;;;;;;14.38;6.70;;;;;;;9.21;89.79;102793.50;5076331;28;20085;-62
2022/11/11 00:02:58;;;;;;;10.02;6.25;;;;;;;9.26;89.92;102791.97;5092959;28;20036;-61
2022/11/11 00:05:25;;;;;;;16.83;6.93;;;;;;;9.27;90.09;102793.75;5094180;28;20020;-61
2022/11/11 00:08:01;;;;;;;13.75;6.85;;;;;;;9.27;90.59;102796.41;5094176;28;20062;-62
2022/11/11 00:10:30;;;;;;;10.85;6.70;;;;;;;9.32;90.00;102796.63;5094415;28;20074;-61
2022/11/11 00:13:00;;;;;;;14.35;6.50;;;;;;;9.33;90.41;102794.88;5094137;28;20025;-62
2022/11/11 00:15:26;;;;;;;13.52;7.88;;;;;;;9.33;90.65;102787.84;5093929;28;20017;-61
2022/11/11 00:26:06;;;;;;;14.77;7.85;;;;;;;9.38;91.19;102796.00;5114489;28;20127;-61
2022/11/11 00:28:31;;;;;;;10.65;7.40;;;;;;;9.40;90.77;102792.59;5114075;28;20419;-61
2022/11/11 00:31:07;;;;;;;15.75;8.35;;;;;;;9.42;91.21;102796.25;5114056;28;20028;-61
2022/11/11 00:33:33;;;;;;;14.80;7.70;;;;;;;9.43;90.69;102797.13;5113979;28;20042;-61
2022/11/11 00:35:59;;;;;;;15.07;8.57;;;;;;;9.47;90.81;102802.63;5113935;28;20030;-62
2022/11/11 00:41:09;;;;;;;18.02;9.40;;;;;;;9.48;90.88;102809.69;5114229;28;20524;-62
2022/11/11 00:43:35;;;;;;;13.07;9.13;;;;;;;9.48;91.37;102814.97;5113851;28;20036;-60
2022/11/11 00:51:28;;;;;;;16.15;9.10;;;;;;;9.53;91.29;102818.72;5114114;28;20055;-62
2022/11/11 00:53:54;;;;;;;13.82;9.30;;;;;;;9.56;91.46;102815.34;5113603;28;20466;-61
2022/11/11 00:56:21;;;;;;;14.57;9.77;;;;;;;9.57;91.61;102808.31;5113773;28;20016;-62
2022/11/11 00:58:46;;;;;;;18.00;9.85;;;;;;;9.55;91.62;102818.81;5113616;28;20028;-62
2022/11/11 01:01:12;;;;;;;15.07;9.98;;;;;;;9.55;91.58;102826.75;5113856;28;20040;-65
2022/11/11 01:03:37;;;;;;;15.32;9.60;;;;;;;9.58;91.59;102823.31;5113541;28;20023;-61
2022/11/11 01:06:03;;;;;;;14.95;9.13;;;;;;;9.57;92.15;102830.34;5113517;28;20031;-61
2022/11/11 01:08:29;;;;;;;16.63;10.02;;;;;;;9.57;92.09;102835.63;5113845;28;20024;-62
2022/11/11 01:10:55;;;;;;;15.13;10.15;;;;;;;9.57;92.06;102830.34;5113496;28;20028;-61
2022/11/11 01:13:23;;;;;;;16.48;10.27;;;;;;;9.59;92.02;102836.56;5113518;28;20053;-61
2022/11/11 01:15:51;;;;;;;17.10;10.38;;;;;;;9.62;91.91;102842.00;5113067;28;20057;-63
2022/11/11 01:18:19;;;;;;;17.63;10.57;;;;;;;9.61;91.87;102837.56;5113561;28;20023;-61
2022/11/11 01:20:45;;;;;;;16.55;10.05;;;;;;;9.62;92.58;102839.38;5113385;28;20019;-60
2022/11/11 01:23:12;;;;;;;18.98;10.93;;;;;;;9.64;92.05;102834.19;5113421;28;20384;-61
2022/11/11 01:25:40;;;;;;;18.63;10.70;;;;;;;9.65;91.97;102835.97;5113178;28;20016;-62
2022/11/11 01:28:07;;;;;;;16.38;10.98;;;;;;;9.61;92.69;102829.66;5113317;28;20032;-62
2022/11/11 01:30:34;;;;;;;21.63;11.02;;;;;;;9.63;92.34;102833.25;5113308;28;20077;-61
2022/11/11 01:33:00;;;;;;;17.73;11.07;;;;;;;9.65;92.19;102833.34;5113369;28;20023;-61
2022/11/11 01:35:25;;;;;;;16.88;10.32;;;;;;;9.64;92.24;102824.53;5113240;28;20028;-62
2022/11/11 01:37:50;;;;;;;19.65;10.95;;;;;;;9.66;92.52;102836.03;5113119;28;20050;-61
2022/11/11 01:40:16;;;;;;;22.00;11.95;;;;;;;9.66;92.42;102829.84;5113379;28;20024;-60
2022/11/11 01:43:04;;;;;;;17.50;11.35;;;;;;;9.68;92.57;102828.22;5113441;28;20053;-61
2022/11/11 01:45:45;;;;;;;18.65;10.85;;;;;;;9.66;92.82;102817.56;5113120;28;20071;-61
2022/11/11 01:51:15;;;;;;;20.92;11.18;;;;;;;9.65;92.82;102818.41;5113213;28;20111;-61
2022/11/11 01:53:41;;;;;;;18.75;11.40;;;;;;;9.65;92.85;102814.88;5112979;28;20116;-61
2022/11/11 01:56:09;;;;;;;17.80;11.02;;;;;;;9.67;92.86;102819.38;5113226;28;20036;-61
2022/11/11 01:58:35;;;;;;;15.38;9.73;;;;;;;9.69;92.78;102814.16;5114530;28;20026;-61
2022/11/11 02:01:01;;;;;;;18.00;11.05;;;;;;;9.68;92.90;102808.00;5116856;28;20027;-61
2022/11/11 02:03:30;;;;;;;19.77;11.77;;;;;;;9.69;93.02;102814.16;5131469;27;20485;-62
2022/11/11 02:05:56;;;;;;;19.48;11.25;;;;;;;9.67;92.99;102811.44;5137465;27;20031;-61
2022/11/11 02:08:32;;;;;;;18.33;10.90;;;;;;;9.66;93.00;102812.28;5119211;27;20076;-62
2022/11/11 02:11:05;;;;;;;20.98;11.02;;;;;;;9.68;93.06;102812.38;5137538;27;20019;-61
2022/11/11 02:16:16;;;;;;;18.02;11.48;;;;;;;9.66;92.91;102809.63;5137184;27;20404;-61
2022/11/11 02:18:42;;;;;;;22.52;12.15;;;;;;;9.62;93.03;102786.56;5137276;27;20035;-61
2022/11/11 02:21:16;;;;;;;18.65;11.18;;;;;;;9.63;92.90;102783.09;5137182;27;20089;-62
2022/11/11 02:23:52;;;;;;;18.00;11.07;;;;;;;9.62;93.15;102778.66;5137040;27;20507;-61
2022/11/11 02:26:19;;;;;;;20.58;11.35;;;;;;;9.57;93.53;102769.63;5137210;27;20027;-61
2022/11/11 02:28:45;;;;;;;17.67;10.60;;;;;;;9.57;93.41;102774.91;5137012;27;20030;-61
2022/11/11 02:31:12;;;;;;;19.33;11.18;;;;;;;9.61;93.09;102775.97;5136998;27;20027;-62
2022/11/11 02:33:37;;;;;;;20.55;11.32;;;;;;;9.60;93.26;102780.34;5118581;27;20559;-61
2022/11/11 02:36:04;;;;;;;16.95;10.88;;;;;;;9.62;93.22;102780.41;5136932;27;20102;-61
2022/11/11 02:38:30;;;;;;;18.75;11.10;;;;;;;9.59;93.37;102783.78;5136920;27;20038;-61
2022/11/11 02:43:39;;;;;;;19.10;11.10;;;;;;;9.60;93.31;102790.00;5137126;27;20060;-61
2022/11/11 02:46:06;;;;;;;19.42;10.80;;;;;;;9.60;93.06;102779.44;5136899;27;20027;-62
2022/11/11 02:48:31;;;;;;;22.00;10.98;;;;;;;9.58;93.48;102795.19;5136814;27;20061;-60
2022/11/11 02:50:57;;;;;;;21.02;10.43;;;;;;;9.54;93.28;102780.94;5136581;27;20139;-63
2022/11/11 02:53:22;;;;;;;16.45;10.40;;;;;;;9.51;93.48;102778.19;5136855;27;20180;-61
2022/11/11 02:55:48;;;;;;;16.83;9.75;;;;;;;9.52;93.21;102771.16;5136268;27;20488;-60
2022/11/11 02:58:14;;;;;;;16.67;10.40;;;;;;;9.50;93.21;102759.63;5136693;27;20035;-61
2022/11/11 03:00:41;;;;;;;20.02;10.70;;;;;;;9.48;93.20;102764.84;5136515;27;20030;-61
2022/11/11 03:03:07;;;;;;;17.50;10.05;;;;;;;9.45;93.55;102758.50;5136432;27;20118;-61
2022/11/11 03:05:33;;;;;;;18.23;10.15;;;;;;;9.44;93.59;102773.44;5136570;27;20035;-61
2022/11/11 03:07:58;;;;;;;15.13;9.88;;;;;;;9.44;93.39;102783.09;5136331;27;20019;-63
2022/11/11 03:10:24;;;;;;;17.85;10.43;;;;;;;9.41;93.54;102786.47;5117768;27;20392;-62
2022/11/11 03:12:49;;;;;;;15.68;9.93;;;;;;;9.40;93.54;102782.06;5136199;27;20115;-61
2022/11/11 03:15:14;;;;;;;16.33;10.30;;;;;;;9.35;93.35;102769.50;5117810;27;20015;-61
2022/11/11 03:17:40;;;;;;;12.93;8.48;;;;;;;9.37;93.23;102768.72;5135808;27;20055;-61
2022/11/11 03:23:06;;;;;;;12.60;9.10;;;;;;;9.40;93.37;102782.06;5136312;27;20146;-61
2022/11/11 03:25:38;;;;;;;13.85;9.13;;;;;;;9.38;93.53;102791.66;5135845;27;20023;-61
2022/11/11 03:28:10;;;;;;;15.23;9.25;;;;;;;9.38;93.98;102781.09;5135855;27;20033;-61
2022/11/11 03:30:36;;;;;;;14.10;9.30;;;;;;;9.40;93.56;102789.97;5136091;27;20102;-61
2022/11/11 03:33:02;;;;;;;15.10;9.30;;;;;;;9.41;93.37;102793.50;5135797;27;20034;-60
2022/11/11 03:35:28;;;;;;;15.73;9.07;;;;;;;9.41;93.30;102801.41;5135806;27;20024;-61
2022/11/11 03:40:37;;;;;;;15.93;9.75;;;;;;;9.39;93.77;102785.53;5135967;27;20058;-61
2022/11/11 03:43:03;;;;;;;19.20;10.30;;;;;;;9.37;93.83;102783.63;5135592;27;20460;-63
2022/11/11 03:45:29;;;;;;;19.55;9.95;;;;;;;9.36;93.58;102784.47;5135525;27;20029;-61
2022/11/11 03:47:54;;;;;;;15.93;9.73;;;;;;;9.32;93.93;102782.53;5135481;27;20405;-61
2022/11/11 03:50:21;;;;;;;19.83;9.88;;;;;;;9.29;94.27;102780.63;5135482;27;20059;-61
2022/11/11 03:52:46;;;;;;;16.45;9.38;;;;;;;9.30;94.34;102779.81;5135433;27;20031;-61
2022/11/11 03:55:12;;;;;;;17.23;9.68;;;;;;;9.26;94.52;102768.22;5135240;27;20034;-61
2022/11/11 03:57:41;;;;;;;16.55;9.95;;;;;;;9.24;94.76;102783.06;5116935;27;20024;-61
2022/11/11 04:00:07;;;;;;;17.10;10.02;;;;;;;9.24;94.88;102785.69;5135255;27;20059;-61
2022/11/11 04:10:44;;;;;;;16.70;9.52;;;;;;;9.18;95.06;102793.34;5135342;27;20070;-61
2022/11/11 04:16:06;;;;;;;18.42;10.07;;;;;;;9.19;94.28;102802.16;5135247;27;20042;-61
2022/11/11 04:24:01;;;;;;;13.38;9.68;;;;;;;9.11;94.50;102811.41;5094066;28;20058;-61
2022/11/11 04:26:26;;;;;;;19.85;10.45;;;;;;;9.03;95.26;102800.50;5093818;28;20028;-61
2022/11/11 04:32:34;;;;;;;17.65;9.70;;;;;;;9.02;95.70;102814.50;5094079;28;20170;-61
2022/11/11 04:34:21;;;;;;;15.57;9.07;;;;;;;9.03;95.07;102816.31;5093597;28;20119;-60
2022/11/11 04:36:47;;;;;;;15.43;9.80;;;;;;;9.06;95.48;102815.56;5093590;28;20145;-61
2022/11/11 04:41:56;;;;;;;17.17;9.73;;;;;;;9.06;95.18;102803.28;5093916;28;20111;-62
2022/11/11 04:47:05;;;;;;;16.20;9.00;;;;;;;9.02;95.30;102803.97;5114216;28;20073;-61
2022/11/11 04:49:30;;;;;;;15.27;10.38;;;;;;;9.00;95.34;102803.91;5113777;28;20031;-61
2022/11/11 04:56:46;;;;;;;16.65;9.38;;;;;;;8.98;95.24;102794.09;5113943;28;20126;-61
2022/11/11 04:57:25;;;;;;;17.42;10.10;;;;;;;8.95;95.41;102800.16;5113588;28;20040;-61
2022/11/11 04:59:50;;;;;;;15.68;9.35;;;;;;;8.96;95.39;102807.22;5095573;28;20030;-61
2022/11/11 05:04:59;;;;;;;18.67;9.90;;;;;;;8.96;95.24;102806.31;5113628;28;20046;-62
2022/11/11 05:10:09;;;;;;;18.30;9.82;;;;;;;8.88;95.47;102791.84;5114076;28;20046;-61
2022/11/11 05:12:34;;;;;;;13.45;8.35;;;;;;;8.85;95.35;102807.50;5113552;28;20028;-61
2022/11/11 05:23:11;;;;;;;14.70;8.90;;;;;;;8.82;94.86;102812.63;5134031;28;20034;-65
2022/11/11 05:25:37;;;;;;;12.60;8.00;;;;;;;8.84;94.98;102817.16;5133904;27;20027;-61
2022/11/11 05:28:02;;;;;;;11.48;8.48;;;;;;;8.85;95.08;102820.69;5133889;28;20124;-60
2022/11/11 05:30:27;;;;;;;14.13;9.07;;;;;;;8.83;95.13;102820.63;5133859;27;20534;-60
2022/11/11 05:32:56;;;;;;;13.73;8.80;;;;;;;8.84;95.28;102818.91;5135715;27;20077;-62
2022/11/11 05:35:21;;;;;;;14.55;8.52;;;;;;;8.83;95.29;102817.09;5138180;27;20023;-61
2022/11/11 05:38:19;;;;;;;18.10;10.82;;;;;;;8.77;94.15;102815.94;5138230;27;20429;-61
2022/11/11 05:40:32;;;;;;;15.98;9.75;;;;;;;8.71;94.05;102823.56;5137928;27;20031;-61
2022/11/11 05:42:57;;;;;;;13.40;8.88;;;;;;;8.66;94.18;102809.25;5137882;27;20535;-61
2022/11/11 05:45:23;;;;;;;15.77;9.82;;;;;;;8.64;94.33;102813.53;5138082;27;20027;-60
2022/11/11 05:47:48;;;;;;;15.43;10.45;;;;;;;8.63;93.96;102810.81;5137808;27;20549;-61
2022/11/11 05:50:14;;;;;;;17.73;10.68;;;;;;;8.58;94.22;102807.06;5137876;27;20039;-61
2022/11/11 05:52:46;;;;;;;14.57;10.20;;;;;;;8.59;93.89;102811.50;5137774;27;20358;-62
2022/11/11 05:55:11;;;;;;;17.83;10.77;;;;;;;8.53;93.46;102823.53;5136350;27;20494;-61
2022/11/11 05:57:37;;;;;;;16.55;10.60;;;;;;;8.46;93.81;102799.44;5137525;27;20118;-61
2022/11/11 06:00:04;;;;;;;16.45;10.48;;;;;;;8.40;93.49;102812.31;5137607;27;20033;-61
2022/11/11 06:02:29;;;;;;;15.48;10.13;;;;;;;8.37;94.03;102812.13;5137568;27;20035;-61
2022/11/11 06:04:54;;;;;;;16.88;11.27;;;;;;;8.32;93.75;102810.97;5137444;27;20491;-61
2022/11/11 06:07:21;;;;;;;17.77;10.00;;;;;;;8.31;94.10;102822.31;5137524;27;20177;-61
2022/11/11 06:09:46;;;;;;;19.13;11.10;;;;;;;8.27;93.75;102829.16;5137482;27;20019;-62
2022/11/11 06:12:11;;;;;;;16.85;10.07;;;;;;;8.27;94.07;102831.81;5136460;27;20035;-61
2022/11/11 06:14:37;;;;;;;16.20;10.52;;;;;;;8.20;94.93;102829.66;5137315;27;20434;-61
2022/11/11 06:17:02;;;;;;;15.40;10.20;;;;;;;8.16;94.87;102831.22;5136985;27;20047;-61
2022/11/11 06:19:27;;;;;;;16.58;10.02;;;;;;;8.16;94.84;102825.97;5136129;27;20054;-61
2022/11/11 06:21:56;;;;;;;17.80;10.32;;;;;;;8.13;94.47;102830.16;5137242;27;20095;-61
2022/11/11 06:24:21;;;;;;;18.20;10.70;;;;;;;8.10;94.64;102828.28;5137066;27;20062;-61
2022/11/11 06:26:46;;;;;;;18.08;10.43;;;;;;;8.06;94.50;102835.94;5137156;27;20043;-61
2022/11/11 06:29:12;;;;;;;18.40;10.77;;;;;;;8.01;94.81;102833.97;5137115;27;20412;-61
2022/11/11 06:31:37;;;;;;;17.80;11.43;;;;;;;7.99;95.09;102832.97;5137011;27;20066;-61
2022/11/11 06:34:03;;;;;;;16.73;10.48;;;;;;;7.96;95.04;102847.69;5136957;27;20039;-61
2022/11/11 06:36:28;;;;;;;18.80;9.95;;;;;;;7.92;95.02;102845.72;5136705;27;20020;-61
2022/11/11 06:38:53;;;;;;;15.70;9.88;;;;;;;7.91;95.13;102847.44;5136859;27;20023;-61
2022/11/11 06:41:19;;;;;;;21.67;10.57;;;;;;;7.86;95.83;102850.66;5136904;27;20023;-65
2022/11/11 06:43:45;;;;;;;19.98;10.75;;;;;;;7.86;95.96;102863.81;5136440;27;20152;-61
2022/11/11 06:46:16;;;;;;;15.93;10.70;;;;;;;7.83;95.60;102861.00;5136660;27;20028;-61
2022/11/11 06:48:42;;;;;;;16.83;10.65;;;;;;;7.81;96.04;102860.94;5136824;27;20027;-61
2022/11/11 06:51:10;;;;;;;18.38;10.02;;;;;;;7.77;95.86;102866.84;5135700;27;20118;-60
2022/11/11 06:53:35;;;;;;;19.17;11.05;;;;;;;7.75;96.02;102864.16;5136670;27;20065;-60
2022/11/11 06:56:01;;;;;;;15.18;10.07;;;;;;;7.71;95.67;102856.91;5136296;27;22378;-60
2022/11/11 06:58:26;;;;;;;14.45;10.02;;;;;;;7.67;96.82;102856.66;5136498;27;20015;-61
2022/11/11 07:00:52;;;;;;;18.45;10.35;;;;;;;7.63;96.42;102858.22;5136402;27;20056;-62
2022/11/11 07:03:19;;;;;;;19.40;10.90;;;;;;;7.63;96.21;102852.06;5136463;27;20460;-61
2022/11/11 07:05:45;;;;;;;16.10;10.75;;;;;;;7.60;96.59;102862.41;5136523;27;20015;-61
2022/11/11 07:08:13;;;;;;;18.75;10.85;;;;;;;7.61;96.73;102858.94;5136368;27;20384;-61
2022/11/11 07:10:43;;;;;;;17.70;10.43;;;;;;;7.59;96.67;102857.97;5136326;27;20499;-61
2022/11/11 07:13:09;;;;;;;18.40;11.20;;;;;;;7.57;97.05;102860.50;5136258;27;20023;-61
2022/11/11 07:15:35;;;;;;;17.02;12.32;;;;;;;7.62;96.36;102866.00;5136098;27;20019;-61
2022/11/11 07:18:01;;;;;;;18.42;11.18;;;;;;;7.59;97.28;102873.75;5136007;27;20103;-61
2022/11/11 07:20:26;;;;;;;21.00;11.88;;;;;;;7.56;96.94;102863.94;5134903;27;20426;-61
2022/11/11 07:22:51;;;;;;;21.45;12.23;;;;;;;7.54;97.63;102876.13;5136128;27;20019;-61
2022/11/11 07:25:17;;;;;;;23.48;11.65;;;;;;;7.58;97.59;102872.84;5135736;27;20459;-61
2022/11/11 07:27:43;;;;;;;22.15;11.38;;;;;;;7.62;96.53;102882.69;5136313;27;20019;-61
2022/11/11 07:30:09;;;;;;;21.00;12.38;;;;;;;7.65;96.69;102876.72;5135989;27;20031;-61
2022/11/11 07:32:35;;;;;;;20.80;12.57;;;;;;;7.67;96.36;102883.88;5135845;27;20361;-60
2022/11/11 07:35:02;;;;;;;22.35;12.10;;;;;;;7.69;96.77;102881.31;5135773;27;20037;-61
2022/11/11 07:37:29;;;;;;;19.13;11.88;;;;;;;7.73;96.41;102892.09;5135645;27;20027;-61
2022/11/11 07:39:55;;;;;;;19.10;11.73;;;;;;;7.76;96.28;102887.00;5135683;27;20038;-62
2022/11/11 07:42:20;;;;;;;17.77;11.20;;;;;;;7.78;95.60;102887.09;5135729;27;20021;-60
2022/11/11 07:44:45;;;;;;;18.92;11.35;;;;;;;7.82;95.60;102882.91;5135614;27;20468;-60
2022/11/11 07:47:11;;;;;;;16.92;10.85;;;;;;;7.83;95.69;102892.59;5135404;27;20104;-61
2022/11/11 07:49:36;;;;;;;19.10;10.93;;;;;;;7.85;95.93;102894.50;5135544;27;20035;-61
2022/11/11 07:52:02;;;;;;;21.35;11.95;;;;;;;7.85;95.98;102899.78;5135074;27;20027;-61
2022/11/11 07:54:27;;;;;;;23.88;12.98;;;;;;;7.86;94.91;102906.84;5134837;27;20022;-63
2022/11/11 07:56:53;;;;;;;18.38;11.63;;;;;;;7.87;94.68;102906.00;5132318;27;20032;-61
2022/11/11 07:59:18;;;;;;;19.55;11.57;;;;;;;7.90;95.00;102910.56;5134056;27;20023;-61
2022/11/11 08:01:44;;;;;;;22.10;11.95;;;;;;;7.87;94.41;102907.75;5133855;27;20503;-61
2022/11/11 08:04:09;;;;;;;17.92;11.48;;;;;;;7.92;94.59;102922.06;5134009;27;20114;-61
2022/11/11 08:06:35;;;;;;;21.23;13.23;;;;;;;7.93;93.96;102918.63;5133967;27;20384;-61
2022/11/11 08:09:00;;;;;;;26.13;12.70;;;;;;;8.00;94.28;102924.28;5133740;27;20109;-61
2022/11/11 08:14:09;;;;;;;20.13;11.63;;;;;;;8.18;93.82;102934.00;5135361;27;20043;-61
2022/11/11 08:16:34;;;;;;;21.38;13.05;;;;;;;8.25;93.38;102941.41;5134606;27;20039;-61
2022/11/11 08:19:00;;;;;;;25.27;14.48;;;;;;;8.29;92.67;102938.13;5135022;27;20487;-60
2022/11/11 08:21:26;;;;;;;26.08;16.33;;;;;;;8.34;92.21;102936.63;5134861;27;20023;-61
2022/11/11 08:23:52;;;;;;;23.63;12.95;;;;;;;8.44;91.49;102936.34;5134833;27;20111;-61
2022/11/11 08:26:18;;;;;;;19.52;12.55;;;;;;;8.59;91.08;102936.25;5134782;27;20030;-61
2022/11/11 08:28:44;;;;;;;22.42;12.98;;;;;;;8.71;90.68;102936.88;5134744;27;20050;-61
2022/11/11 08:31:09;;;;;;;18.10;11.43;;;;;;;8.83;89.70;102944.53;5134674;27;20106;-61
2022/11/11 08:33:35;;;;;;;19.17;12.57;;;;;;;8.92;88.95;102963.44;5134347;27;20464;-61
2022/11/11 08:36:02;;;;;;;20.13;12.00;;;;;;;8.97;89.00;102956.69;5134613;27;20439;-61
2022/11/11 08:38:28;;;;;;;19.92;11.20;;;;;;;9.05;88.50;102961.44;5134609;27;20031;-61
2022/11/11 08:40:53;;;;;;;18.25;9.98;;;;;;;9.06;87.79;102958.88;5134474;27;20114;-62
2022/11/11 08:43:19;;;;;;;18.02;10.40;;;;;;;9.09;87.53;102977.50;5134555;27;20030;-61
2022/11/11 08:45:45;;;;;;;15.60;10.25;;;;;;;9.19;87.62;102973.59;5134534;27;20020;-61
2022/11/11 08:48:11;;;;;;;16.17;9.90;;;;;;;9.28;86.55;102974.94;5134441;27;20034;-60
2022/11/11 08:50:38;;;;;;;15.88;9.63;;;;;;;9.46;86.83;102969.72;5134485;27;20483;-62
2022/11/11 08:53:05;;;;;;;14.07;9.43;;;;;;;9.59;85.44;102971.19;5134370;27;20495;-60
2022/11/11 08:55:30;;;;;;;14.70;9.32;;;;;;;9.68;84.43;102976.94;5134234;27;20025;-61
2022/11/11 08:58:00;;;;;;;13.50;8.75;;;;;;;9.77;84.58;102972.09;5134226;27;20031;-61
2022/11/11 09:00:25;;;;;;;14.73;9.75;;;;;;;9.82;83.35;102979.34;5134281;27;20023;-62
2022/11/11 09:02:51;;;;;;;17.40;8.85;;;;;;;9.95;83.52;102981.72;5134225;27;20072;-61
2022/11/11 09:05:17;;;;;;;14.90;8.23;;;;;;;10.02;82.44;102982.09;5134142;27;20031;-61
2022/11/11 09:07:42;;;;;;;13.50;8.90;;;;;;;10.11;82.56;102967.53;5133779;27;20043;-61
2022/11/11 09:10:08;;;;;;;12.93;7.90;;;;;;;10.31;82.35;102965.81;5134064;27;20476;-61
2022/11/11 09:12:33;;;;;;;11.73;8.13;;;;;;;10.40;81.38;102975.06;5133140;27;20095;-62
2022/11/11 09:15:00;;;;;;;12.77;8.23;;;;;;;10.45;80.92;102970.00;5134286;27;20101;-61
2022/11/11 09:17:27;;;;;;;12.57;7.63;;;;;;;10.53;81.07;102972.16;5133737;27;20116;-61
2022/11/11 09:19:52;;;;;;;11.93;7.20;;;;;;;10.56;80.55;102974.03;5132810;27;20430;-61
2022/11/11 09:22:18;;;;;;;11.43;6.70;;;;;;;10.61;80.12;102967.19;5133867;27;20106;-61
2022/11/11 09:24:43;;;;;;;10.98;6.97;;;;;;;10.66;80.00;102967.41;5133982;27;20034;-60
2022/11/11 09:27:09;;;;;;;10.70;6.85;;;;;;;10.64;79.41;102969.09;5133988;27;20525;-61
2022/11/11 09:29:35;;;;;;;11.32;6.93;;;;;;;10.73;79.91;102974.78;5134348;27;20068;-62
2022/11/11 09:32:00;;;;;;;11.30;6.47;;;;;;;10.77;79.31;102979.38;5132614;28;20027;-62
2022/11/11 09:34:25;;;;;;;11.65;6.75;;;;;;;10.76;79.33;102970.53;5134193;27;20123;-61
2022/11/11 09:36:51;;;;;;;10.50;6.55;;;;;;;10.90;79.16;102975.50;5133789;27;20034;-61
2022/11/11 09:39:16;;;;;;;9.93;6.60;;;;;;;11.01;78.68;102971.59;5134070;27;20340;-61
2022/11/11 09:41:54;;;;;;;10.30;6.60;;;;;;;11.01;78.69;102967.22;5134095;27;20037;-62
2022/11/11 09:44:48;;;;;;;10.57;6.80;;;;;;;11.11;79.59;102979.09;5133730;27;20405;-62
2022/11/11 09:47:25;;;;;;;11.20;6.05;;;;;;;11.22;78.57;102980.47;5133740;27;20138;-61
2022/11/11 09:49:56;;;;;;;12.73;6.00;;;;;;;11.17;77.61;102984.63;5133735;27;20388;-62
2022/11/11 09:52:33;;;;;;;10.27;6.00;;;;;;;11.13;76.86;102985.31;5133696;27;20031;-62
2022/11/11 09:55:05;;;;;;;9.65;5.75;;;;;;;11.09;77.24;102974.56;5133511;27;20047;-62
2022/11/11 09:57:38;;;;;;;9.50;5.85;;;;;;;11.10;78.00;102977.28;5133606;27;20069;-60
2022/11/11 10:00:23;;;;;;;10.30;5.43;;;;;;;11.24;77.92;102981.41;5133663;27;20076;-61
2022/11/11 10:02:56;;;;;;;7.28;5.07;;;;;;;11.32;77.29;102986.13;5133082;28;20031;-61
2022/11/11 10:05:28;;;;;;;7.70;5.05;;;;;;;11.35;77.09;102981.88;5133588;27;20042;-62
2022/11/11 10:07:53;;;;;;;;;;;;;;;11.47;76.85;102978.81;5133976;28;20070;-62
2022/11/11 10:10:41;;;;;;;8.20;5.18;;;;;;;11.56;76.77;102992.41;5133521;28;19907;-61
2022/11/11 10:13:14;;;;;;;8.80;5.43;;;;;;;11.64;76.93;102985.69;5133533;27;20468;-62
2022/11/11 10:15:56;;;;;;;9.73;5.60;;;;;;;11.69;75.32;102996.47;5133574;27;20031;-62
2022/11/11 10:18:33;;;;;;;8.70;5.47;;;;;;;11.72;75.19;102986.00;5133121;27;20058;-62
2022/11/11 10:21:04;;;;;;;9.45;4.88;;;;;;;11.77;74.53;102988.00;5137098;27;20261;-61
2022/11/11 10:23:33;;;;;;;9.27;5.30;;;;;;;11.86;74.60;102991.88;5137261;27;20465;-62
2022/11/11 10:26:04;;;;;;;7.00;4.82;;;;;;;11.95;74.47;102987.88;5137004;27;20059;-61
2022/11/11 10:28:35;;;;;;;10.82;4.78;;;;;;;12.12;74.12;102993.84;5137145;27;20030;-61
2022/11/11 10:31:03;;;;;;;11.15;5.25;;;;;;;12.25;73.45;102984.63;5137389;27;20118;-61
2022/11/11 10:33:45;;;;;;;7.03;4.93;;;;;;;12.31;73.52;102990.16;5137065;27;20024;-61
2022/11/11 10:36:17;;;;;;;7.18;4.63;;;;;;;12.42;73.15;102994.13;5137166;27;20387;-61
2022/11/11 10:38:59;;;;;;;7.22;4.70;;;;;;;12.58;72.48;102990.25;5137367;27;20023;-62
2022/11/11 10:41:45;;;;;;;8.43;4.28;;;;;;;12.69;71.66;102990.66;5136927;27;20035;-61
2022/11/11 10:44:20;;;;;;;5.20;4.00;;;;;;;12.89;71.66;102997.59;5135637;27;20024;-62
2022/11/11 10:47:09;;;;;;;6.00;4.50;;;;;;;13.11;70.85;102993.94;5135481;27;20031;-61
2022/11/11 10:49:56;;;;;;;5.40;3.92;;;;;;;13.11;69.63;102996.59;5136856;27;20066;-61
2022/11/11 10:52:25;;;;;;;6.03;3.88;;;;;;;13.08;69.81;102990.28;5136717;27;20031;-61
2022/11/11 10:54:59;;;;;;;6.35;4.00;;;;;;;13.14;69.57;102994.03;5136507;27;20114;-62
2022/11/11 10:57:35;;;;;;;6.80;4.10;;;;;;;13.24;69.61;102996.22;5136718;27;20027;-61
2022/11/11 11:00:05;;;;;;;9.15;4.00;;;;;;;13.32;68.59;102996.47;5136890;27;20136;-61
2022/11/11 11:02:45;;;;;;;7.13;3.90;;;;;;;13.38;67.92;102998.44;5136559;27;20076;-61
2022/11/11 11:05:31;;;;;;;6.97;3.70;;;;;;;13.42;68.38;102990.63;5136465;27;20027;-61
2022/11/11 11:08:04;;;;;;;5.75;3.80;;;;;;;13.40;67.97;102986.09;5136417;27;20031;-62
2022/11/11 11:10:47;;;;;;;6.45;3.90;;;;;;;13.33;68.02;102989.41;5136412;27;20023;-61
2022/11/11 11:13:15;;;;;;;;;;;;;;;13.43;68.07;102984.44;5136707;27;20034;-62
2022/11/11 11:15:47;;;;;;;6.78;3.65;;;;;;;13.39;66.92;102979.88;5136172;27;19932;-61
2022/11/11 11:18:15;;;;;;;6.20;3.30;;;;;;;13.37;67.61;102978.94;5136096;27;20045;-62
2022/11/11 11:21:01;;;;;;;6.43;3.50;;;;;;;13.55;67.50;102977.75;5136403;27;20031;-62
2022/11/11 11:23:46;;;;;;;9.85;3.50;;;;;;;13.64;67.52;102992.22;5136313;27;20313;-61
2022/11/11 11:26:13;;;;;;;4.95;3.20;;;;;;;13.53;66.34;102983.91;5135890;27;20023;-61
2022/11/11 11:28:53;;;;;;;6.35;3.30;;;;;;;13.42;67.10;102974.69;5136147;27;20019;-61
2022/11/11 11:31:35;;;;;;;6.72;2.95;;;;;;;13.40;67.98;102971.06;5135939;27;20128;-62
2022/11/11 11:34:01;;;;;;;6.88;3.13;;;;;;;13.44;67.13;102980.94;5135978;27;20054;-61
2022/11/11 11:36:26;;;;;;;6.18;3.25;;;;;;;13.49;66.94;102975.81;5135789;27;20427;-61
2022/11/11 11:38:52;;;;;;;6.03;3.30;;;;;;;13.57;66.83;102971.59;5135870;27;20377;-62
2022/11/11 11:41:35;;;;;;;5.53;3.10;;;;;;;13.55;67.38;102972.44;5134860;27;20027;-62
2022/11/11 11:44:01;;;;;;;6.60;3.15;;;;;;;13.63;66.94;102961.19;5134368;27;20096;-61
2022/11/11 11:46:37;;;;;;;5.72;3.10;;;;;;;13.85;66.90;102959.22;5135591;27;20015;-61
2022/11/11 11:49:09;;;;;;;4.65;2.67;;;;;;;13.90;65.54;102963.81;5135659;27;20031;-62
2022/11/11 11:51:46;;;;;;;4.93;2.58;;;;;;;13.90;65.42;102966.47;5135605;27;20027;-62
2022/11/11 11:54:22;;;;;;;6.10;2.90;;;;;;;13.86;65.93;102955.69;5135504;27;20072;-61
2022/11/11 11:56:51;;;;;;;6.45;2.60;;;;;;;13.87;65.33;102963.72;5135499;27;20109;-62
2022/11/11 11:59:48;;;;;;;5.68;2.60;;;;;;;13.99;65.90;102957.88;5135334;27;20421;-61
2022/11/11 12:02:39;;;;;;;3.40;2.33;;;;;;;14.03;64.94;102960.66;5135293;27;20468;-62
2022/11/11 12:05:10;;;;;;;5.35;2.47;;;;;;;14.07;64.00;102958.13;5135321;27;20059;-62
2022/11/11 12:07:35;;;;;;;5.63;2.45;;;;;;;14.15;64.27;102951.28;5135441;27;20066;-61
2022/11/11 12:10:19;;;;;;;5.65;2.50;;;;;;;14.21;64.13;102955.00;5135229;27;20536;-62
2022/11/11 12:12:54;;;;;;;5.18;2.50;;;;;;;14.22;64.23;102956.81;5135129;27;20034;-61
2022/11/11 12:15:46;;;;;;;5.65;2.28;;;;;;;14.30;63.73;102954.38;5135117;27;20373;-62
2022/11/11 12:18:33;;;;;;;3.83;2.28;;;;;;;14.34;63.25;102945.63;5134795;27;20051;-62
2022/11/11 12:21:12;;;;;;;3.80;2.50;;;;;;;14.37;63.44;102952.81;5134964;27;20045;-62
2022/11/11 12:23:40;;;;;;;5.18;2.28;;;;;;;14.39;63.13;102941.38;5135040;27;20054;-62
2022/11/11 12:26:37;;;;;;;6.05;2.42;;;;;;;14.52;62.81;102940.88;5134783;27;20030;-61
2022/11/11 12:29:20;;;;;;;4.45;2.58;;;;;;;14.65;62.49;102941.22;5135133;27;20031;-62
2022/11/11 12:32:06;;;;;;;4.50;2.40;;;;;;;14.62;63.29;102931.38;5134869;27;20046;-62
2022/11/11 12:35:00;;;;;;;6.05;2.40;;;;;;;14.61;62.39;102926.94;5134845;27;20168;-61
2022/11/11 12:37:29;;;;;;;5.30;2.40;;;;;;;14.57;63.08;102924.16;5134996;27;20393;-62
2022/11/11 12:40:24;;;;;;;4.43;2.30;;;;;;;14.67;63.06;102931.50;5134629;27;20019;-62
2022/11/11 12:42:49;;;;;;;3.95;2.30;;;;;;;14.70;62.00;102916.53;5134010;27;20079;-62
2022/11/11 12:45:14;;;;;;;4.13;2.25;;;;;;;14.69;61.68;102924.50;5134553;27;20019;-62